createdAt,value
2022-12-15T00:03:25.661Z,1009.1
2022-12-15T00:08:24.998Z,1009.1
2022-12-15T00:13:24.669Z,1009.0
2022-12-15T00:18:24.338Z,1009.1
2022-12-15T00:23:24.002Z,1009.1
2022-12-15T00:28:23.686Z,1009.1
2022-12-15T00:33:27.597Z,1009.1
2022-12-15T00:38:23.061Z,1009.0
2022-12-15T00:43:22.724Z,1009.0
2022-12-15T00:48:26.387Z,1008.9
2022-12-15T00:58:21.776Z,1008.9
2022-12-15T01:03:21.770Z,1009.0
2022-12-15T01:08:21.083Z,1009.2
2022-12-15T01:13:20.763Z,1009.2
2022-12-15T01:18:20.403Z,1009.2
2022-12-15T01:23:20.143Z,1009.2
2022-12-15T01:28:19.743Z,1009.3
2022-12-15T01:33:19.469Z,1009.2
2022-12-15T01:38:19.047Z,1009.2
2022-12-15T01:43:18.731Z,1009.3
2022-12-15T01:48:18.346Z,1009.3
2022-12-15T01:53:18.046Z,1009.4
2022-12-15T01:58:17.708Z,1009.4
2022-12-15T02:03:17.469Z,1009.5
2022-12-15T02:08:19.049Z,1009.5
2022-12-15T02:13:16.689Z,1009.6
2022-12-15T02:18:16.333Z,1009.6
2022-12-15T02:23:16.044Z,1009.6
2022-12-15T02:28:15.669Z,1009.6
2022-12-15T02:33:19.378Z,1009.6
2022-12-15T02:38:15.006Z,1009.6
2022-12-15T02:43:16.813Z,1009.7
2022-12-15T02:48:14.384Z,1009.6
2022-12-15T02:53:14.009Z,1009.6
2022-12-15T02:58:15.636Z,1009.6
2022-12-15T03:03:15.330Z,1009.6
2022-12-15T03:08:12.893Z,1009.6
2022-12-15T03:13:12.559Z,1009.6
2022-12-15T03:18:12.215Z,1009.6
2022-12-15T03:23:11.882Z,1009.5
2022-12-15T03:31:16.253Z,1009.6
2022-12-15T03:33:11.174Z,1009.6
2022-12-15T03:38:10.986Z,1009.6
2022-12-15T03:43:10.531Z,1009.6
2022-12-15T03:48:10.090Z,1009.7
2022-12-15T03:53:09.750Z,1009.7
2022-12-15T03:58:09.371Z,1009.7
2022-12-15T04:03:09.299Z,1009.7
2022-12-15T04:08:08.698Z,1009.7
2022-12-15T04:13:08.364Z,1009.7
2022-12-15T04:18:08.006Z,1009.7
2022-12-15T04:28:07.382Z,1009.6
2022-12-15T04:33:06.999Z,1009.6
2022-12-15T04:38:06.787Z,1009.6
2022-12-15T04:43:06.494Z,1009.6
2022-12-15T04:48:06.060Z,1009.6
2022-12-15T04:53:05.582Z,1009.6
2022-12-15T04:58:05.227Z,1009.5
2022-12-15T05:03:04.881Z,1009.6
2022-12-15T05:13:06.263Z,1009.7
2022-12-15T05:18:03.892Z,1009.7
2022-12-15T05:23:05.499Z,1009.7
2022-12-15T05:28:03.111Z,1009.8
2022-12-15T05:33:02.788Z,1009.8
2022-12-15T05:38:02.446Z,1009.8
2022-12-15T05:43:04.111Z,1009.8
2022-12-15T05:48:01.739Z,1009.8
2022-12-15T05:53:01.429Z,1009.9
2022-12-15T05:58:01.045Z,1009.9
2022-12-15T06:03:00.797Z,1009.8
2022-12-15T06:08:00.317Z,1009.9
2022-12-15T06:12:59.977Z,1009.8
2022-12-15T06:17:59.597Z,1009.9
2022-12-15T06:22:59.279Z,1009.9
2022-12-15T06:28:01.721Z,1010.0
2022-12-15T06:32:58.556Z,1010.0
2022-12-15T06:37:58.138Z,1010.1
2022-12-15T06:42:57.803Z,1010.1
2022-12-15T06:48:01.319Z,1010.1
2022-12-15T06:52:57.038Z,1010.1
2022-12-15T06:57:56.641Z,1010.2
2022-12-15T07:02:56.423Z,1010.2
2022-12-15T07:07:57.166Z,1010.3
2022-12-15T07:12:55.458Z,1010.3
2022-12-15T07:17:57.526Z,1010.3
2022-12-15T07:22:54.688Z,1010.4
2022-12-15T07:27:54.314Z,1010.4
2022-12-15T07:32:53.918Z,1010.4
2022-12-15T07:37:53.596Z,1010.4
2022-12-15T07:42:53.174Z,1010.5
2022-12-15T07:47:52.757Z,1010.4
2022-12-15T07:52:54.418Z,1010.5
2022-12-15T07:57:54.013Z,1010.5
2022-12-15T08:02:51.808Z,1010.6
2022-12-15T08:07:51.226Z,1010.6
2022-12-15T08:12:50.845Z,1010.6
2022-12-15T08:17:50.430Z,1010.7
2022-12-15T08:22:50.116Z,1010.8
2022-12-15T08:27:49.712Z,1010.7
2022-12-15T08:32:52.165Z,1010.8
2022-12-15T08:37:48.855Z,1010.9
2022-12-15T08:42:49.224Z,1010.9
2022-12-15T08:47:48.016Z,1011.0
2022-12-15T08:53:13.863Z,1011.0
2022-12-15T08:57:47.185Z,1011.0
2022-12-15T09:02:46.853Z,1011.2
2022-12-15T09:07:46.351Z,1011.2
2022-12-15T09:17:45.670Z,1011.3
2022-12-15T09:22:45.198Z,1011.3
2022-12-15T09:27:44.928Z,1011.3
2022-12-15T09:32:44.422Z,1011.4
2022-12-15T09:37:49.975Z,1011.4
2022-12-15T09:42:43.712Z,1011.4
2022-12-15T09:47:43.308Z,1011.4
2022-12-15T09:52:42.976Z,1011.5
2022-12-15T09:57:42.575Z,1011.5
2022-12-15T10:02:42.283Z,1011.5
2022-12-15T10:07:41.846Z,1011.6
2022-12-15T10:12:50.272Z,1011.7
2022-12-15T10:17:41.092Z,1011.6
2022-12-15T10:22:40.750Z,1011.6
2022-12-15T10:27:40.469Z,1011.7
2022-12-15T10:32:43.001Z,1011.6
2022-12-15T10:42:39.404Z,1011.7
2022-12-15T10:47:39.082Z,1011.7
2022-12-15T10:52:38.780Z,1011.7
2022-12-15T10:57:38.440Z,1011.7
2022-12-15T11:02:38.463Z,1011.7
2022-12-15T11:07:40.321Z,1011.7
2022-12-15T11:12:37.591Z,1011.7
2022-12-15T11:17:37.151Z,1011.6
2022-12-15T11:22:36.829Z,1011.6
2022-12-15T11:27:36.484Z,1011.5
2022-12-15T11:32:36.154Z,1011.5
2022-12-15T11:37:36.910Z,1011.5
2022-12-15T11:42:35.512Z,1011.5
2022-12-15T11:47:35.212Z,1011.4
2022-12-15T11:52:34.809Z,1011.3
2022-12-15T11:57:34.547Z,1011.3
2022-12-15T12:02:34.355Z,1011.3
2022-12-15T12:07:42.009Z,1011.3
2022-12-15T12:12:33.559Z,1011.3
2022-12-15T12:17:33.243Z,1011.2
2022-12-15T12:22:33.027Z,1011.1
2022-12-15T12:27:32.601Z,1011.0
2022-12-15T12:32:32.373Z,1011.0
2022-12-15T12:37:32.004Z,1011.0
2022-12-15T12:42:31.794Z,1010.9
2022-12-15T12:47:31.589Z,1010.9
2022-12-15T12:52:31.161Z,1010.8
2022-12-15T12:57:30.938Z,1010.8
2022-12-15T13:02:30.891Z,1010.8
2022-12-15T13:07:30.324Z,1010.8
2022-12-15T13:12:51.004Z,1010.9
2022-12-15T13:17:29.838Z,1010.8
2022-12-15T13:22:32.192Z,1010.8
2022-12-15T13:27:29.320Z,1010.7
2022-12-15T13:57:30.093Z,1010.5
2022-12-15T14:07:27.727Z,1010.4
2022-12-15T14:12:27.187Z,1010.4
2022-12-15T14:27:26.285Z,1010.5
2022-12-15T14:32:26.034Z,1010.5
2022-12-15T14:37:25.796Z,1010.5
2022-12-15T14:42:25.538Z,1010.5
2022-12-15T14:52:24.966Z,1010.6
2022-12-15T14:57:24.911Z,1010.6
2022-12-15T15:02:24.510Z,1010.6
2022-12-15T15:07:24.229Z,1010.6
2022-12-15T15:12:24.000Z,1010.6
2022-12-15T15:22:23.369Z,1010.7
2022-12-15T15:32:22.865Z,1010.8
2022-12-15T15:37:22.674Z,1010.9
2022-12-15T15:42:24.515Z,1010.9
2022-12-15T15:52:21.855Z,1011.0
2022-12-15T15:57:21.663Z,1011.0
2022-12-15T16:02:21.713Z,1011.0
2022-12-15T16:07:22.293Z,1011.0
2022-12-15T16:12:20.870Z,1011.0
2022-12-15T16:17:20.615Z,1011.0
2022-12-15T16:22:21.772Z,1011.1
2022-12-15T16:27:19.993Z,1011.1
2022-12-15T16:32:19.658Z,1011.1
2022-12-15T16:37:19.393Z,1011.1
2022-12-15T16:42:19.013Z,1011.2
2022-12-15T16:47:18.833Z,1011.2
2022-12-15T16:52:18.423Z,1011.3
2022-12-15T16:57:18.068Z,1011.3
2022-12-15T17:02:19.924Z,1011.3
2022-12-15T17:07:20.305Z,1011.4
2022-12-15T17:12:19.053Z,1011.4
2022-12-15T17:17:16.720Z,1011.6
2022-12-15T17:22:16.385Z,1011.5
2022-12-15T17:27:16.144Z,1011.6
2022-12-15T17:32:15.735Z,1011.7
2022-12-15T17:37:15.459Z,1011.8
2022-12-15T17:42:15.087Z,1011.9
2022-12-15T17:47:14.761Z,1012.0
2022-12-15T17:52:14.416Z,1012.1
2022-12-15T17:57:14.034Z,1012.1
2022-12-15T17:57:14.118Z,1012.1
2022-12-15T18:02:13.911Z,1012.2
2022-12-15T18:07:13.582Z,1012.1
2022-12-15T18:12:13.159Z,1012.2
2022-12-15T18:17:12.784Z,1012.3
2022-12-15T18:22:16.654Z,1012.3
2022-12-15T18:25:20.575Z,1012.3
2022-12-15T18:27:12.108Z,1012.4
2022-12-15T18:32:13.744Z,1012.4
2022-12-15T18:37:11.395Z,1012.4
2022-12-15T18:42:11.114Z,1012.4
2022-12-15T18:47:10.768Z,1012.5
2022-12-15T18:52:10.646Z,1012.5
2022-12-15T18:57:10.204Z,1012.6
2022-12-15T19:02:09.864Z,1012.7
2022-12-15T19:07:09.886Z,1012.7
2022-12-15T19:12:10.254Z,1012.8
2022-12-15T19:17:08.620Z,1012.8
2022-12-15T19:22:08.320Z,1012.8
2022-12-15T19:27:07.904Z,1012.8
2022-12-15T19:32:07.574Z,1012.8
2022-12-15T19:37:10.536Z,1012.9
2022-12-15T19:42:13.107Z,1012.9
2022-12-15T19:47:06.617Z,1013.0
2022-12-15T19:52:06.148Z,1013.1
2022-12-15T19:57:05.900Z,1013.1
2022-12-15T20:02:05.616Z,1013.2
2022-12-15T20:07:05.153Z,1013.2
2022-12-15T20:12:04.815Z,1013.3
2022-12-15T20:17:04.443Z,1013.2
2022-12-15T20:22:06.010Z,1013.2
2022-12-15T20:27:07.324Z,1013.2
2022-12-15T20:32:07.447Z,1013.3
2022-12-15T20:37:02.937Z,1013.4
2022-12-15T20:42:02.894Z,1013.4
2022-12-15T20:47:02.280Z,1013.4
2022-12-15T20:52:01.989Z,1013.5
2022-12-15T20:57:01.603Z,1013.4
2022-12-15T21:02:01.661Z,1013.4
2022-12-15T21:07:00.898Z,1013.5
2022-12-15T21:12:05.802Z,1013.6
2022-12-15T21:17:00.394Z,1013.7
2022-12-15T21:21:59.899Z,1013.7
2022-12-15T21:26:59.607Z,1013.7
2022-12-15T21:31:59.264Z,1013.7
2022-12-15T21:36:58.846Z,1013.7
2022-12-15T21:41:58.532Z,1013.7
2022-12-15T21:47:00.192Z,1013.7
2022-12-15T21:51:57.853Z,1013.8
2022-12-15T21:56:57.505Z,1013.8
2022-12-15T22:01:57.250Z,1013.7
2022-12-15T22:06:58.815Z,1013.8
2022-12-15T22:11:56.478Z,1013.8
2022-12-15T22:16:56.229Z,1013.9
2022-12-15T22:21:55.797Z,1014.0
2022-12-15T22:26:55.422Z,1014.1
2022-12-15T22:31:55.204Z,1014.1
2022-12-15T22:36:56.763Z,1014.1
2022-12-15T22:41:54.376Z,1014.2
2022-12-15T22:46:54.292Z,1014.3
2022-12-15T22:51:53.662Z,1014.2
2022-12-15T22:56:53.304Z,1014.3
2022-12-15T23:01:53.004Z,1014.3
2022-12-15T23:06:54.964Z,1014.3
2022-12-15T23:11:55.022Z,1014.3
2022-12-15T23:16:51.820Z,1014.3
2022-12-15T23:21:51.437Z,1014.3
2022-12-15T23:26:51.060Z,1014.4
2022-12-15T23:31:50.656Z,1014.4
2022-12-15T23:36:50.447Z,1014.5
2022-12-15T23:41:49.902Z,1014.5
2022-12-15T23:46:49.515Z,1014.5
2022-12-15T23:51:49.053Z,1014.6
2022-12-15T23:56:48.665Z,1014.5
